Highland Beach, Florida
Current Conditions -  °F | °C
As of 4:53 PM on Friday 19 Dec 2014 (Local Time) from KPMP Reporting Station
Clear Clear  
Wind Chill: 24°   Ceiling: Unl
Heat Index: 24°   Visibility: 10mi
Dew Point: 14°   Wind: 10mph
Humidity: 55%   Direction: 140°SE
Pressure: 30.03"   Gusts: NA
Location:  26.4095°N, 80.0961°W
Report Text: KPMP 192153Z 14009KT 10SM CLR 24/14 A3003 RMK AO2 SLP171 T02390144
Loading
Personal Weather Stations






























Interactive Weather Map New forecast layout! Learn more

10-Day Weather Forecast

Advertisements
Track Severe Weather on mobile